Vernon, Idaho
Current Conditions -  °F | °C
As of 12:56 PM on Saturday 25 Oct 2014 (Local Time) from KDIJ Reporting Station
Clear Clear  
Wind Chill: 70°   Ceiling: Unl
Heat Index: 70°   Visibility: 10mi
Dew Point: 25°   Wind: 18mph
Humidity: 19%   Direction: 210°SSW
Pressure: 30.07"   Gusts: 24mph
Location:  43.6065°N, 111.138°W
Report Text: KDIJ 251856Z AUTO 21016G21KT 10SM CLR 21/M04 A3007 RMK AO2 T02111038 SLP118
Loading
Personal Weather Stations






























Interactive Weather Map
Tropical Storm Tracking
New forecast layout! Learn more

10-Day Weather Forecast

Advertisements
Track Severe Weather on mobile